Time;durP1;ratioP1;P1;durP2;ratioP2;P2;SDS_P1;SDS_P2;PMS_P1;PMS_P2;Temp;Humidity;BMP_temperature;BMP_pressure;BME280_temperature;BME280_humidity;BME280_pressure;Samples;Min_cycle;Max_cycle;Signal;HPM_P1;HPM_P2
2022/06/14 00:00:54;;;;;;;;;;;;;;;24.00;51.77;98410.97;5065515;28;19931;-60
2022/06/14 00:03:21;;;;;;;;;;;;;;;23.21;53.25;98408.50;5064215;28;19925;-60
2022/06/14 00:05:48;;;;;;;;;;;;;;;23.21;53.97;98413.19;5061904;28;19936;-60
2022/06/14 00:08:14;;;;;;;;;;;;;;;23.55;53.15;98421.88;5062065;28;19926;-60
2022/06/14 00:10:41;;;;;;;;;;;;;;;23.74;52.90;98415.13;5065315;28;19991;-60
2022/06/14 00:13:09;;;;;;;;;;;;;;;23.83;52.91;98413.13;5068697;28;19995;-60
2022/06/14 00:15:37;;;;;;;;;;;;;;;23.77;52.86;98419.91;5062105;28;19925;-60
2022/06/14 00:18:04;;;;;;;;;;;;;;;23.76;53.19;98407.41;5061496;28;19925;-60
2022/06/14 00:20:30;;;;;;;;;;;;;;;23.81;53.30;98413.44;5064008;28;20179;-60
2022/06/14 00:22:56;;;;;;;;;;;;;;;23.83;53.23;98418.56;5064927;28;19925;-60
2022/06/14 00:25:25;;;;;;;;;;;;;;;23.81;52.95;98415.34;5063527;28;19925;-60
2022/06/14 00:27:51;;;;;;;;;;;;;;;23.77;53.06;98420.69;5061434;28;19931;-61
2022/06/14 00:30:18;;;;;;;;;;;;;;;23.81;52.97;98421.63;5061909;28;19984;-60
2022/06/14 00:32:45;;;;;;;;;;;;;;;23.81;52.75;98420.81;5064778;28;19925;-60
2022/06/14 00:35:13;;;;;;;;;;;;;;;23.48;52.75;98424.34;5064651;28;19932;-61
2022/06/14 00:37:39;;;;;;;;;;;;;;;23.24;53.43;98418.75;5053009;28;19948;-60
2022/06/14 00:40:06;;;;;;;;;;;;;;;23.09;53.73;98427.50;5052815;28;19925;-61
2022/06/14 00:42:33;;;;;;;;;;;;;;;22.98;54.41;98420.88;5059323;28;19928;-61
2022/06/14 00:45:04;;;;;;;;;;;;;;;22.68;54.73;98422.03;5064423;28;19988;-60
2022/06/14 00:47:33;;;;;;;;;;;;;;;22.73;55.19;98430.00;5061849;28;19931;-61
2022/06/14 00:50:03;;;;;;;;;;;;;;;22.70;55.24;98425.22;5059649;28;19993;-61
2022/06/14 00:52:33;;;;;;;;;;;;;;;22.59;55.82;98424.78;5063019;28;19925;-60
2022/06/14 00:55:03;;;;;;;;;;;;;;;22.94;55.08;98431.63;5064161;28;19925;-60
2022/06/14 00:57:32;;;;;;;;;;;;;;;23.20;54.35;98431.44;5061794;28;19925;-60
2022/06/14 01:00:02;;;;;;;;;;;;;;;23.38;54.02;98437.56;5060801;28;19994;-60
2022/06/14 01:02:30;;;;;;;;;;;;;;;23.44;53.76;98437.06;5062607;28;20012;-59
2022/06/14 01:05:00;;;;;;;;;;;;;;;23.48;53.51;98443.44;5064032;28;19932;-59
2022/06/14 01:07:30;;;;;;;;;;;;;;;23.50;53.59;98443.91;5061052;28;19954;-60
2022/06/14 01:10:00;;;;;;;;;;;;;;;23.39;54.01;98437.25;5060607;28;19931;-60
2022/06/14 01:12:30;;;;;;;;;;;;;;;23.19;54.33;98432.56;5065994;28;19992;-59
2022/06/14 01:14:58;;;;;;;;;;;;;;;22.55;55.85;98430.09;5064003;28;19947;-59
2022/06/14 01:17:25;;;;;;;;;;;;;;;22.31;57.14;98429.09;5062211;28;19992;-59
2022/06/14 01:19:52;;;;;;;;;;;;;;;22.12;58.13;98426.75;5060286;28;19929;-60
2022/06/14 01:22:23;;;;;;;;;;;;;;;22.17;58.40;98434.72;5060768;28;19932;-61
2022/06/14 01:24:49;;;;;;;;;;;;;;;22.60;57.52;98429.88;5063725;28;19996;-60
2022/06/14 01:27:17;;;;;;;;;;;;;;;22.96;56.69;98423.16;5063213;28;19956;-61
2022/06/14 01:29:46;;;;;;;;;;;;;;;23.03;56.18;98421.47;5060221;28;19931;-59
2022/06/14 01:32:15;;;;;;;;;;;;;;;23.11;55.93;98425.28;5060027;28;19925;-60
2022/06/14 01:34:44;;;;;;;;;;;;;;;22.52;56.72;98419.06;5059991;28;19931;-61
2022/06/14 01:37:10;;;;;;;;;;;;;;;22.84;56.97;98423.84;5059866;28;19925;-61
2022/06/14 01:39:38;;;;;;;;;;;;;;;22.95;56.28;98418.81;5063100;28;19967;-61
2022/06/14 01:42:11;;;;;;;;;;;;;;;22.55;56.36;98421.91;5063116;28;19924;-61
2022/06/14 01:44:49;;;;;;;;;;;;;;;22.47;56.85;98430.91;5063129;28;19943;-60
2022/06/14 01:47:22;;;;;;;;;;;;;;;22.64;57.13;98423.78;5062636;28;19936;-61
2022/06/14 01:52:47;;;;;;;;;;;;;;;22.71;55.91;98435.00;5059516;28;19945;-60
2022/06/14 01:55:21;;;;;;;;;;;;;;;22.85;55.83;98438.25;5059470;28;19925;-61
2022/06/14 01:57:55;;;;;;;;;;;;;;;22.60;55.84;98429.09;5063072;28;20245;-61
2022/06/14 02:00:24;;;;;;;;;;;;;;;21.97;57.62;98436.22;5061944;28;20006;-61
2022/06/14 02:04:36;;;;;;;;;;;;;;;21.46;59.04;98434.38;5059532;28;19921;-61
2022/06/14 02:05:45;;;;;;;;;;;;;;;21.31;61.92;98429.44;5059401;28;19948;-61
2022/06/14 02:08:13;;;;;;;;;;;;;;;21.02;62.36;98426.50;5059451;28;19996;-61
2022/06/14 02:10:46;;;;;;;;;;;;;;;21.08;63.29;98425.22;5059318;28;20134;-59
2022/06/14 02:13:16;;;;;;;;;;;;;;;20.86;65.69;98434.31;5067383;28;20209;-59
2022/06/14 02:15:43;;;;;;;;;;;;;;;21.06;65.04;98421.22;5059586;28;19952;-60
2022/06/14 02:18:12;;;;;;;;;;;;;;;21.30;63.54;98421.59;5059169;28;20004;-60
2022/06/14 02:20:41;;;;;;;;;;;;;;;21.46;62.72;98419.97;5062440;28;19939;-60
2022/06/14 02:23:09;;;;;;;;;;;;;;;21.20;63.67;98417.25;5062502;28;19920;-60
2022/06/14 02:25:37;;;;;;;;;;;;;;;21.00;64.33;98426.03;5059376;28;19932;-60
2022/06/14 02:28:07;;;;;;;;;;;;;;;21.95;61.92;98416.72;5058902;28;19948;-60
2022/06/14 02:30:37;;;;;;;;;;;;;;;21.98;60.64;98416.06;5061743;28;20599;-59
2022/06/14 02:33:07;;;;;;;;;;;;;;;21.83;60.83;98429.34;5062211;28;19955;-59
2022/06/14 02:35:37;;;;;;;;;;;;;;;21.49;61.77;98430.22;5059435;28;19961;-59
2022/06/14 02:38:18;;;;;;;;;;;;;;;20.70;64.57;98416.88;5058608;28;19925;-60
2022/06/14 02:40:47;;;;;;;;;;;;;;;20.89;65.04;98422.00;5058885;28;19992;-60
2022/06/14 02:43:17;;;;;;;;;;;;;;;21.03;66.54;98417.25;5066783;28;19931;-61
2022/06/14 02:45:47;;;;;;;;;;;;;;;21.14;65.86;98417.75;5058414;28;19936;-60
2022/06/14 02:48:17;;;;;;;;;;;;;;;21.80;63.07;98424.56;5058706;28;19937;-60
2022/06/14 02:50:46;;;;;;;;;;;;;;;21.71;62.18;98423.78;5050184;28;19928;-60
2022/06/14 02:53:15;;;;;;;;;;;;;;;22.07;61.28;98418.75;5050145;28;19969;-60
2022/06/14 02:55:44;;;;;;;;;;;;;;;21.95;61.06;98426.78;5050222;28;19925;-60
2022/06/14 02:58:14;;;;;;;;;;;;;;;21.43;63.29;98424.16;5058495;28;19948;-60
2022/06/14 03:00:46;;;;;;;;;;;;;;;21.56;63.70;98427.00;5058397;28;19940;-60
2022/06/14 03:03:16;;;;;;;;;;;;;;;21.17;65.61;98431.47;5058306;28;19956;-60
2022/06/14 03:05:45;;;;;;;;;;;;;;;20.85;68.51;98421.06;5058331;28;19983;-60
2022/06/14 03:08:14;;;;;;;;;;;;;;;21.19;68.49;98420.31;5058175;28;19936;-60
2022/06/14 03:10:44;;;;;;;;;;;;;;;21.86;64.86;98429.50;5058263;28;19926;-60
2022/06/14 03:13:13;;;;;;;;;;;;;;;21.86;63.94;98428.72;5065754;28;20345;-60
2022/06/14 03:15:45;;;;;;;;;;;;;;;21.40;65.82;98424.78;5058144;28;20586;-60
2022/06/14 03:18:16;;;;;;;;;;;;;;;21.17;67.88;98428.78;5058419;28;19921;-60
2022/06/14 03:20:45;;;;;;;;;;;;;;;21.15;69.06;98425.59;5058275;28;20341;-60
2022/06/14 03:23:21;;;;;;;;;;;;;;;21.87;65.55;98425.69;5058128;28;19930;-60
2022/06/14 03:25:49;;;;;;;;;;;;;;;22.19;63.75;98420.81;5058142;28;19925;-60
2022/06/14 03:28:17;;;;;;;;;;;;;;;22.30;62.84;98411.94;5058185;28;19925;-60
2022/06/14 03:30:48;;;;;;;;;;;;;;;22.36;62.57;98423.44;5062013;28;19925;-61
2022/06/14 03:33:18;;;;;;;;;;;;;;;22.33;62.72;98416.75;5065499;28;19921;-60
2022/06/14 03:35:47;;;;;;;;;;;;;;;22.22;62.92;98423.66;5062152;28;19984;-60
2022/06/14 03:38:15;;;;;;;;;;;;;;;21.84;64.28;98430.97;5061964;28;19936;-60
2022/06/14 03:40:43;;;;;;;;;;;;;;;22.21;63.68;98424.78;5065616;28;19921;-61
2022/06/14 03:43:09;;;;;;;;;;;;;;;22.34;62.84;98428.44;5069101;28;19925;-61
2022/06/14 03:45:41;;;;;;;;;;;;;;;22.40;62.35;98427.91;5062252;28;19925;-61
2022/06/14 03:48:09;;;;;;;;;;;;;;;22.37;62.32;98419.63;5061983;28;19956;-60
2022/06/14 03:50:39;;;;;;;;;;;;;;;22.22;62.48;98431.81;5065052;28;20577;-60
2022/06/14 03:53:13;;;;;;;;;;;;;;;21.86;63.97;98434.94;5065298;28;19943;-60
2022/06/14 03:55:48;;;;;;;;;;;;;;;22.12;63.49;98421.31;5053720;28;19925;-60
2022/06/14 03:58:32;;;;;;;;;;;;;;;22.26;62.66;98432.75;5053479;28;19932;-60
2022/06/14 04:01:01;;;;;;;;;;;;;;;22.39;61.79;98428.22;5053014;28;19964;-60
2022/06/14 04:03:35;;;;;;;;;;;;;;;22.41;61.34;98432.22;5053388;28;19933;-60
2022/06/14 04:06:10;;;;;;;;;;;;;;;22.43;61.00;98416.38;5053363;28;19988;-60
2022/06/14 04:08:45;;;;;;;;;;;;;;;22.42;60.76;98416.69;5053280;28;19931;-61
2022/06/14 04:11:17;;;;;;;;;;;;;;;22.40;60.79;98416.22;5053163;28;19948;-60
2022/06/14 04:13:47;;;;;;;;;;;;;;;22.38;60.61;98419.25;5065149;28;19927;-61
2022/06/14 04:16:19;;;;;;;;;;;;;;;22.39;60.69;98411.91;5061509;28;19932;-60
2022/06/14 04:18:49;;;;;;;;;;;;;;;22.33;60.60;98414.03;5063906;28;19924;-60
2022/06/14 04:21:24;;;;;;;;;;;;;;;22.37;60.67;98420.41;5064735;28;19929;-59
2022/06/14 04:23:53;;;;;;;;;;;;;;;22.24;60.78;98415.97;5060257;28;19929;-60
2022/06/14 04:26:23;;;;;;;;;;;;;;;22.13;61.35;98424.84;5062339;28;19926;-60
2022/06/14 04:28:53;;;;;;;;;;;;;;;22.17;61.23;98425.75;5064817;28;19925;-60
2022/06/14 04:31:25;;;;;;;;;;;;;;;22.16;61.41;98438.56;5063669;28;19925;-60
2022/06/14 04:33:55;;;;;;;;;;;;;;;22.16;61.16;98437.78;5061159;28;19926;-60
2022/06/14 04:36:24;;;;;;;;;;;;;;;22.23;60.92;98433.41;5062181;28;19979;-59
2022/06/14 04:38:53;;;;;;;;;;;;;;;22.17;61.23;98436.63;5064455;28;19936;-60
2022/06/14 04:41:22;;;;;;;;;;;;;;;22.04;61.90;98427.56;5063516;28;19952;-60
2022/06/14 04:43:51;;;;;;;;;;;;;;;21.74;62.55;98431.28;5064681;28;19929;-60
2022/06/14 04:46:20;;;;;;;;;;;;;;;21.21;65.80;98424.31;5061206;28;19952;-60
2022/06/14 04:48:49;;;;;;;;;;;;;;;21.34;66.77;98431.50;5064729;28;19929;-61
2022/06/14 04:51:23;;;;;;;;;;;;;;;21.66;65.49;98426.69;5064236;28;19952;-60
2022/06/14 04:53:53;;;;;;;;;;;;;;;21.69;65.09;98429.56;5060990;28;19929;-60
2022/06/14 04:56:21;;;;;;;;;;;;;;;21.73;65.00;98435.13;5061756;28;19952;-61
2022/06/14 04:58:53;;;;;;;;;;;;;;;21.43;65.95;98429.56;5064265;28;19929;-61
2022/06/14 05:01:21;;;;;;;;;;;;;;;21.41;66.48;98434.53;5063253;28;19924;-59
2022/06/14 05:03:55;;;;;;;;;;;;;;;21.32;67.14;98424.78;5060879;28;19933;-60
2022/06/14 05:06:26;;;;;;;;;;;;;;;20.77;70.77;98432.69;5061682;28;19925;-60
2022/06/14 05:08:56;;;;;;;;;;;;;;;20.04;78.50;98428.75;5064181;28;19971;-59
2022/06/14 05:11:25;;;;;;;;;;;;;;;19.61;83.72;98436.63;5062769;28;19991;-60
2022/06/14 05:13:55;;;;;;;;;;;;;;;19.93;82.21;98441.75;5064118;28;19925;-60
2022/06/14 05:16:25;;;;;;;;;;;;;;;19.73;83.52;98438.78;5061744;28;19931;-60
2022/06/14 05:18:53;;;;;;;;;;;;;;;20.16;81.53;98442.50;5064006;28;19929;-60
2022/06/14 05:21:23;;;;;;;;;;;;;;;20.57;78.83;98441.44;5062860;28;19928;-60
2022/06/14 05:23:52;;;;;;;;;;;;;;;19.88;82.53;98427.53;5060148;28;19929;-60
2022/06/14 05:26:24;;;;;;;;;;;;;;;20.61;78.57;98437.75;5060905;28;19960;-60
2022/06/14 05:28:56;;;;;;;;;;;;;;;20.34;80.11;98436.06;5063719;28;19924;-60
2022/06/14 05:31:27;;;;;;;;;;;;;;;20.59;79.71;98441.91;5062492;28;19925;-60
2022/06/14 05:33:58;;;;;;;;;;;;;;;21.39;73.44;98441.41;5060130;28;19926;-60
2022/06/14 05:36:27;;;;;;;;;;;;;;;21.90;70.06;98438.66;5061650;28;19968;-60
2022/06/14 05:38:58;;;;;;;;;;;;;;;22.16;68.44;98435.84;5063789;28;19982;-60
2022/06/14 05:41:29;;;;;;;;;;;;;;;22.44;66.54;98442.44;5062141;28;19955;-60
2022/06/14 05:44:00;;;;;;;;;;;;;;;22.32;66.52;98436.91;5063844;28;19934;-60
2022/06/14 05:46:29;;;;;;;;;;;;;;;22.03;68.58;98428.72;5061848;28;19925;-60
2022/06/14 05:48:59;;;;;;;;;;;;;;;22.16;67.97;98435.84;5062435;28;19932;-60
2022/06/14 05:51:27;;;;;;;;;;;;;;;22.22;67.50;98441.94;5061566;28;19984;-60
2022/06/14 05:53:56;;;;;;;;;;;;;;;22.64;65.83;98440.13;5059398;28;19929;-60
2022/06/14 05:56:31;;;;;;;;;;;;;;;22.76;65.26;98440.25;5061029;28;19925;-60
2022/06/14 05:59:01;;;;;;;;;;;;;;;22.91;64.42;98434.22;5063088;28;19921;-60
2022/06/14 06:01:31;;;;;;;;;;;;;;;23.04;63.08;98436.69;5061012;28;19925;-61
2022/06/14 06:04:01;;;;;;;;;;;;;;;23.20;61.65;98445.06;5058458;28;19932;-61
2022/06/14 06:06:30;;;;;;;;;;;;;;;23.26;61.04;98437.50;5061219;28;20004;-61
2022/06/14 06:08:58;;;;;;;;;;;;;;;23.41;60.46;98437.72;5062865;28;19924;-61
2022/06/14 06:11:28;;;;;;;;;;;;;;;23.58;59.62;98437.56;5061340;28;20423;-60
2022/06/14 06:13:59;;;;;;;;;;;;;;;23.37;59.29;98439.47;5062877;28;19948;-61
2022/06/14 06:16:32;;;;;;;;;;;;;;;23.49;58.75;98447.75;5060645;28;19925;-60
2022/06/14 06:19:02;;;;;;;;;;;;;;;23.47;58.82;98446.50;5062477;28;20509;-60
2022/06/14 06:21:31;;;;;;;;;;;;;;;23.58;58.88;98444.97;5060440;28;19952;-61
2022/06/14 06:24:00;;;;;;;;;;;;;;;23.72;57.33;98439.19;5070138;22;19994;-78
2022/06/14 06:26:31;;;;;;;;;;;;;;;23.48;58.44;98445.38;5018527;28;19937;-79
2022/06/14 06:28:59;;;;;;;;;;;;;;;23.43;58.02;98445.53;5021188;28;19935;-78
2022/06/14 06:31:28;;;;;;;;;;;;;;;23.92;57.06;98443.81;5005372;28;19932;-80
2022/06/14 06:33:56;;;;;;;;;;;;;;;23.83;57.21;98446.63;5025850;28;19931;-78
2022/06/14 06:36:32;;;;;;;;;;;;;;;23.71;55.59;98441.13;5025044;28;19935;-78
2022/06/14 06:39:06;;;;;;;;;;;;;;;23.44;57.38;98447.16;5017595;28;19990;-80
2022/06/14 06:41:54;;;;;;;;;;;;;;;23.48;57.30;98445.38;5024588;28;19987;-79
2022/06/14 06:44:24;;;;;;;;;;;;;;;23.73;57.29;98440.81;5023837;28;19925;-78
2022/06/14 06:46:54;;;;;;;;;;;;;;;23.90;56.21;98446.06;5016901;28;19925;-78
2022/06/14 06:49:21;;;;;;;;;;;;;;;23.58;56.99;98444.97;5021205;28;20008;-79
2022/06/14 06:51:48;;;;;;;;;;;;;;;23.58;55.76;98444.97;5025494;28;20016;-78
2022/06/14 06:54:20;;;;;;;;;;;;;;;23.84;56.66;98442.75;5029897;28;19929;-78
2022/06/14 06:56:49;;;;;;;;;;;;;;;24.21;55.74;98440.13;5017327;28;21145;-78
2022/06/14 06:59:22;;;;;;;;;;;;;;;23.94;54.80;98442.34;5027929;28;20029;-79
2022/06/14 07:01:49;;;;;;;;;;;;;;;23.67;55.86;98437.50;5023268;28;19954;-80
2022/06/14 07:04:18;;;;;;;;;;;;;;;24.10;56.20;98447.94;5026956;28;20683;-79
2022/06/14 07:06:47;;;;;;;;;;;;;;;24.63;54.13;98449.75;5022844;28;19971;-78
2022/06/14 07:09:17;;;;;;;;;;;;;;;24.77;53.98;98443.91;5015678;28;19925;-78
2022/06/14 07:11:46;;;;;;;;;;;;;;;24.60;52.71;98445.75;5022853;28;20016;-78
2022/06/14 07:14:17;;;;;;;;;;;;;;;24.75;53.22;98451.66;5018198;28;19979;-79
2022/06/14 07:16:47;;;;;;;;;;;;;;;24.70;52.91;98452.69;5004718;28;19936;-79
2022/06/14 07:19:20;;;;;;;;;;;;;;;24.82;53.02;98449.19;5025134;28;19925;-79
2022/06/14 07:21:51;;;;;;;;;;;;;;;24.97;52.54;98448.50;5019527;28;20012;-79
2022/06/14 07:24:21;;;;;;;;;;;;;;;24.83;50.92;98448.03;5027351;28;20404;-80
2022/06/14 07:26:49;;;;;;;;;;;;;;;24.97;50.68;98448.50;5033145;28;19925;-78
2022/06/14 07:29:20;;;;;;;;;;;;;;;25.30;49.11;98451.03;5027950;28;20846;-78
2022/06/14 07:31:50;;;;;;;;;;;;;;;25.27;48.87;98443.53;5026488;28;19925;-79
2022/06/14 07:34:17;;;;;;;;;;;;;;;24.77;49.39;98441.19;5019467;28;19929;-77
2022/06/14 07:36:49;;;;;;;;;;;;;;;25.14;49.06;98445.50;5026265;28;19937;-79
2022/06/14 07:39:20;;;;;;;;;;;;;;;25.39;48.73;98443.50;5013082;28;19960;-78
2022/06/14 07:41:48;;;;;;;;;;;;;;;24.96;49.16;98438.69;5026287;28;20644;-78
2022/06/14 07:44:22;;;;;;;;;;;;;;;25.45;48.19;98439.38;5024791;28;19929;-79
2022/06/14 07:46:55;;;;;;;;;;;;;;;25.33;46.57;98437.47;5013872;28;19979;-79
2022/06/14 07:49:26;;;;;;;;;;;;;;;25.09;47.08;98443.00;5029510;28;19929;-78
2022/06/14 07:51:54;;;;;;;;;;;;;;;24.24;48.46;98426.63;5027844;28;19928;-79
2022/06/14 07:54:24;;;;;;;;;;;;;;;24.32;48.03;98431.19;5028320;28;20583;-79
2022/06/14 07:56:54;;;;;;;;;;;;;;;24.77;48.70;98430.25;5016204;28;19935;-78
2022/06/14 07:59:24;;;;;;;;;;;;;;;25.31;48.09;98428.03;5029496;28;19932;-78
2022/06/14 08:01:53;;;;;;;;;;;;;;;24.11;47.24;98434.00;5030500;28;20017;-78
2022/06/14 08:04:22;;;;;;;;;;;;;;;23.60;49.00;98432.59;5017765;28;19933;-80
2022/06/14 08:06:51;;;;;;;;;;;;;;;23.52;48.61;98424.50;5031337;28;19933;-79
2022/06/14 08:09:20;;;;;;;;;;;;;;;23.60;49.76;98423.59;5034069;28;19964;-78
2022/06/14 08:11:49;;;;;;;;;;;;;;;24.40;48.26;98429.47;5014842;28;20647;-78
2022/06/14 08:14:18;;;;;;;;;;;;;;;24.12;47.41;98426.59;5030994;28;19936;-78
2022/06/14 08:16:47;;;;;;;;;;;;;;;23.86;47.88;98423.34;5029511;28;19931;-78
2022/06/14 08:19:16;;;;;;;;;;;;;;;23.92;49.00;98422.00;5037911;28;19964;-78
2022/06/14 08:21:44;;;;;;;;;;;;;;;23.42;48.23;98424.91;5030773;28;19998;-78
2022/06/14 08:24:13;;;;;;;;;;;;;;;23.21;47.89;98424.84;5037578;28;19936;-79
2022/06/14 08:26:44;;;;;;;;;;;;;;;23.26;48.10;98424.66;5034705;28;19940;-78
2022/06/14 08:29:13;;;;;;;;;;;;;;;23.28;47.74;98429.78;5037283;28;20373;-78
2022/06/14 08:31:43;;;;;;;;;;;;;;;24.05;48.76;98420.88;5026377;28;19932;-78
2022/06/14 08:34:15;;;;;;;;;;;;;;;24.66;47.23;98414.31;5026367;28;20016;-79
2022/06/14 08:36:46;;;;;;;;;;;;;;;25.60;46.50;98422.22;5028218;28;19925;-79
2022/06/14 08:39:17;;;;;;;;;;;;;;;26.01;45.30;98418.25;5025019;28;20027;-78
2022/06/14 08:41:48;;;;;;;;;;;;;;;25.27;44.50;98419.72;5025813;28;19932;-78
2022/06/14 08:44:17;;;;;;;;;;;;;;;25.06;46.65;98413.63;5010316;28;19929;-77
2022/06/14 08:46:49;;;;;;;;;;;;;;;25.78;45.97;98412.56;5020707;28;19928;-78
2022/06/14 08:49:29;;;;;;;;;;;;;;;26.15;45.04;98418.63;5033177;28;19928;-79
2022/06/14 08:52:04;;;;;;;;;;;;;;;26.12;44.88;98411.13;5024377;28;19935;-79
2022/06/14 08:54:42;;;;;;;;;;;;;;;25.75;44.26;98410.53;5022579;28;19960;-80
2022/06/14 08:57:32;;;;;;;;;;;;;;;24.78;45.40;98415.47;5014004;28;19929;-77
2022/06/14 09:00:06;;;;;;;;;;;;;;;25.64;45.50;98415.72;5009108;28;20015;-80
2022/06/14 09:02:56;;;;;;;;;;;;;;;25.55;45.53;98409.63;5029122;28;20456;-79
2022/06/14 09:05:36;;;;;;;;;;;;;;;26.20;44.78;98404.72;5026220;28;19968;-80
2022/06/14 09:08:12;;;;;;;;;;;;;;;24.69;44.25;98408.22;5037926;28;19975;-78
2022/06/14 09:10:52;;;;;;;;;;;;;;;23.76;45.29;98407.41;5027277;28;20020;-81
2022/06/14 09:13:33;;;;;;;;;;;;;;;23.83;46.74;98407.66;5032720;28;19929;-79
2022/06/14 09:16:15;;;;;;;;;;;;;;;24.67;46.49;98410.47;5036341;28;19970;-78
2022/06/14 09:18:53;;;;;;;;;;;;;;;24.91;45.60;98414.34;5031086;28;20424;-78
2022/06/14 09:21:26;;;;;;;;;;;;;;;24.52;45.00;98400.25;5019489;28;20395;-80
2022/06/14 09:24:04;;;;;;;;;;;;;;;24.75;46.15;98397.84;5037448;28;19928;-78
2022/06/14 09:26:33;;;;;;;;;;;;;;;25.83;44.69;98395.91;5034245;28;20305;-79
2022/06/14 09:29:29;;;;;;;;;;;;;;;25.94;44.61;98391.50;5032703;28;20027;-79
2022/06/14 09:32:08;;;;;;;;;;;;;;;25.46;43.62;98389.00;5029562;28;19932;-77
2022/06/14 09:34:53;;;;;;;;;;;;;;;25.69;43.69;98401.00;5035926;28;20536;-79
2022/06/14 09:37:35;;;;;;;;;;;;;;;26.23;43.82;98384.84;5023792;28;20496;-79
2022/06/14 09:40:15;;;;;;;;;;;;;;;26.93;42.92;98387.66;5023873;28;19929;-77
2022/06/14 09:43:00;;;;;;;;;;;;;;;27.04;42.97;98388.69;5018190;28;20587;-77
2022/06/14 09:45:37;;;;;;;;;;;;;;;27.06;42.61;98394.59;5032934;28;19931;-78
2022/06/14 09:48:15;;;;;;;;;;;;;;;26.71;41.77;98397.31;5021558;28;20442;-78
2022/06/14 09:50:50;;;;;;;;;;;;;;;26.70;43.21;98388.31;5020933;28;19929;-78
2022/06/14 09:53:33;;;;;;;;;;;;;;;27.23;43.10;98388.72;5019422;28;19928;-78
2022/06/14 09:56:06;;;;;;;;;;;;;;;27.34;42.87;98393.25;5029079;28;19925;-78
2022/06/14 09:58:44;;;;;;;;;;;;;;;26.94;42.80;98386.50;5030030;28;19931;-79
2022/06/14 10:01:16;;;;;;;;;;;;;;;26.86;43.01;98393.78;5031290;28;19935;-77
2022/06/14 10:03:59;;;;;;;;;;;;;;;27.05;42.53;98390.28;5032397;28;20007;-78
2022/06/14 10:06:37;;;;;;;;;;;;;;;26.48;41.79;98388.97;5017580;28;19925;-78
2022/06/14 10:09:13;;;;;;;;;;;;;;;27.19;42.86;98379.59;5035997;28;20020;-78
2022/06/14 10:11:48;;;;;;;;;;;;;;;27.18;42.67;98394.47;5033368;28;19925;-78
2022/06/14 10:14:30;;;;;;;;;;;;;;;26.53;42.64;98385.16;5031615;28;19929;-79
2022/06/14 10:17:11;;;;;;;;;;;;;;;27.46;42.78;98378.63;5032929;28;19935;-77
2022/06/14 10:19:58;;;;;;;;;;;;;;;27.62;42.21;98375.78;5011805;28;19924;-78
2022/06/14 10:22:30;;;;;;;;;;;;;;;27.11;42.54;98372.41;5015309;28;20016;-78
2022/06/14 10:24:59;;;;;;;;;;;;;;;27.31;42.70;98379.47;5017696;28;19964;-78
2022/06/14 10:30:29;;;;;;;;;;;;;;;27.71;41.02;98366.16;5031698;28;19928;-77
2022/06/14 10:33:15;;;;;;;;;;;;;;;27.85;41.30;98358.16;5034392;28;19935;-78
2022/06/14 10:35:49;;;;;;;;;;;;;;;27.64;40.09;98367.97;5031312;28;19968;-78
2022/06/14 10:38:27;;;;;;;;;;;;;;;26.89;39.56;98365.66;5013154;28;19932;-79
2022/06/14 10:40:59;;;;;;;;;;;;;;;26.40;41.07;98376.25;5024500;28;19935;-80
2022/06/14 10:43:28;;;;;;;;;;;;;;;26.76;41.67;98375.94;5029930;28;19962;-78
2022/06/14 10:45:57;;;;;;;;;;;;;;;27.17;40.92;98360.00;5024628;28;19925;-79
2022/06/14 10:48:41;;;;;;;;;;;;;;;27.46;40.93;98361.34;5023951;28;20186;-78
2022/06/14 10:51:16;;;;;;;;;;;;;;;27.71;40.94;98362.63;4995864;28;19928;-78
2022/06/14 10:53:45;;;;;;;;;;;;;;;27.84;40.92;98350.31;5022974;28;19925;-79
2022/06/14 10:56:28;;;;;;;;;;;;;;;27.46;40.37;98342.94;5026319;28;19925;-79
2022/06/14 10:59:19;;;;;;;;;;;;;;;27.00;40.85;98358.44;5020758;28;19951;-79
2022/06/14 11:01:51;;;;;;;;;;;;;;;26.30;40.84;98346.69;5029552;28;19925;-80
2022/06/14 11:04:21;;;;;;;;;;;;;;;25.48;41.50;98357.41;5033749;28;20829;-78
2022/06/14 11:07:04;;;;;;;;;;;;;;;26.01;42.11;98352.56;5024526;28;20011;-80
2022/06/14 11:09:36;;;;;;;;;;;;;;;26.23;41.56;98351.97;5034194;28;20024;-79
2022/06/14 11:12:10;;;;;;;;;;;;;;;25.58;40.59;98346.00;5033793;28;19925;-78
2022/06/14 11:14:42;;;;;;;;;;;;;;;25.03;41.06;98348.75;5033070;28;20128;-79
2022/06/14 11:17:18;;;;;;;;;;;;;;;25.84;41.83;98347.47;5033149;28;19925;-80
2022/06/14 11:19:52;;;;;;;;;;;;;;;25.70;41.81;98345.94;5030613;28;20483;-80
2022/06/14 11:22:25;;;;;;;;;;;;;;;25.42;41.01;98349.81;5034390;28;20016;-78
2022/06/14 11:24:55;;;;;;;;;;;;;;;25.48;42.04;98346.47;5034184;28;19967;-79
2022/06/14 11:27:27;;;;;;;;;;;;;;;25.82;41.96;98355.22;5032444;28;19928;-78
2022/06/14 11:30:00;;;;;;;;;;;;;;;25.64;40.27;98339.13;5034086;28;19948;-80
2022/06/14 11:32:29;;;;;;;;;;;;;;;26.01;41.63;98331.47;5032470;28;20218;-79
2022/06/14 11:35:02;;;;;;;;;;;;;;;26.22;40.83;98328.47;5031647;28;19941;-80
2022/06/14 11:37:37;;;;;;;;;;;;;;;25.64;41.09;98336.41;5024089;28;19983;-78
2022/06/14 11:40:06;;;;;;;;;;;;;;;25.18;41.65;98335.13;5024724;28;19956;-78
2022/06/14 11:42:37;;;;;;;;;;;;;;;25.64;42.04;98328.19;5006260;28;20024;-79
2022/06/14 11:45:13;;;;;;;;;;;;;;;26.20;40.37;98319.84;5033787;28;19929;-78
2022/06/14 11:47:43;;;;;;;;;;;;;;;25.94;41.27;98327.75;5027670;28;20625;-78
2022/06/14 11:50:14;;;;;;;;;;;;;;;25.69;41.60;98330.66;5022577;28;20020;-78
2022/06/14 11:52:54;;;;;;;;;;;;;;;25.55;41.52;98324.84;4998509;28;19933;-80
2022/06/14 11:55:26;;;;;;;;;;;;;;;26.25;41.57;98314.88;5032184;28;19982;-79
2022/06/14 11:57:57;;;;;;;;;;;;;;;26.62;41.09;98318.06;5030219;28;19925;-78
2022/06/14 12:00:31;;;;;;;;;;;;;;;26.97;41.77;98315.31;5026661;28;20432;-80
2022/06/14 12:02:59;;;;;;;;;;;;;;;26.52;39.09;98315.88;5023343;28;19995;-79
2022/06/14 12:05:39;;;;;;;;;;;;;;;26.18;40.61;98311.97;5029885;28;19929;-79
2022/06/14 12:08:07;;;;;;;;;;;;;;;26.41;40.67;98308.56;5036278;28;20605;-79
2022/06/14 12:10:47;;;;;;;;;;;;;;;26.16;40.41;98310.75;5035883;28;20818;-78
2022/06/14 12:13:22;;;;;;;;;;;;;;;25.98;40.60;98304.81;5029675;28;19933;-79
2022/06/14 12:15:52;;;;;;;;;;;;;;;26.00;40.55;98307.97;5028430;28;20023;-80
2022/06/14 12:18:22;;;;;;;;;;;;;;;26.29;40.60;98298.53;5033773;28;19968;-78
2022/06/14 12:20:51;;;;;;;;;;;;;;;26.78;40.62;98294.16;5034859;28;19953;-78
2022/06/14 12:23:21;;;;;;;;;;;;;;;26.41;39.60;98292.94;5033584;28;20031;-79
2022/06/14 12:28:43;;;;;;;;;;;;;;;26.38;41.03;98299.13;5021749;28;19925;-77
2022/06/14 12:31:12;;;;;;;;;;;;;;;26.76;41.02;98306.63;5034664;28;19929;-78
2022/06/14 12:33:41;;;;;;;;;;;;;;;26.97;41.26;98296.13;5034923;28;19935;-78
2022/06/14 12:36:15;;;;;;;;;;;;;;;27.06;40.67;98293.16;5035585;28;19925;-78
2022/06/14 12:38:43;;;;;;;;;;;;;;;27.01;38.92;98301.69;5029191;28;20039;-79
2022/06/14 12:41:14;;;;;;;;;;;;;;;26.78;39.17;98296.88;5027367;28;20640;-77
2022/06/14 12:43:46;;;;;;;;;;;;;;;26.51;38.44;98294.31;5023122;28;19933;-78
2022/06/14 12:46:13;;;;;;;;;;;;;;;26.24;40.20;98282.38;5027951;28;20435;-79
2022/06/14 12:48:42;;;;;;;;;;;;;;;26.58;40.17;98289.81;5029161;28;19931;-80
2022/06/14 12:51:11;;;;;;;;;;;;;;;26.73;39.03;98285.41;5028587;28;20367;-79
2022/06/14 12:53:40;;;;;;;;;;;;;;;26.94;39.70;98276.88;5026095;28;20472;-77
2022/06/14 12:56:11;;;;;;;;;;;;;;;26.94;38.44;98274.13;5025217;28;19955;-79
2022/06/14 12:58:42;;;;;;;;;;;;;;;26.96;38.16;98280.03;5029379;28;19926;-78
2022/06/14 13:01:15;;;;;;;;;;;;;;;26.76;38.25;98269.06;5023057;28;20366;-79
2022/06/14 13:03:46;;;;;;;;;;;;;;;26.97;39.71;98263.22;5029339;28;20378;-78
2022/06/14 13:06:25;;;;;;;;;;;;;;;26.89;38.44;98277.16;5033744;28;20479;-78
2022/06/14 13:08:57;;;;;;;;;;;;;;;26.90;39.51;98267.78;5019366;28;20322;-79
2022/06/14 13:11:26;;;;;;;;;;;;;;;26.93;37.97;98258.81;5036011;28;19928;-78
2022/06/14 13:13:56;;;;;;;;;;;;;;;26.71;38.22;98261.09;5032769;28;20020;-77
2022/06/14 13:16:35;;;;;;;;;;;;;;;26.88;39.25;98256.38;5034430;28;19935;-80
2022/06/14 13:19:07;;;;;;;;;;;;;;;27.19;39.47;98254.28;5022329;28;19929;-78